sensor_id;sensor_type;location;lat;lon;timestamp;P1;durP1;ratioP1;P2;durP2;ratioP2
43519;SDS011;46848;51.980;5.918;2024-02-28T00:02:10;38.10;;;21.17;;
43519;SDS011;46848;51.980;5.918;2024-02-28T00:04:36;40.50;;;21.73;;
43519;SDS011;46848;51.980;5.918;2024-02-28T00:07:02;35.07;;;19.53;;
43519;SDS011;46848;51.980;5.918;2024-02-28T00:09:28;35.27;;;20.67;;
43519;SDS011;46848;51.980;5.918;2024-02-28T00:11:53;35.77;;;18.93;;
43519;SDS011;46848;51.980;5.918;2024-02-28T00:14:19;40.00;;;22.03;;
43519;SDS011;46848;51.980;5.918;2024-02-28T00:16:45;43.60;;;23.53;;
43519;SDS011;46848;51.980;5.918;2024-02-28T00:19:11;36.20;;;21.70;;
43519;SDS011;46848;51.980;5.918;2024-02-28T00:21:38;36.77;;;18.67;;
43519;SDS011;46848;51.980;5.918;2024-02-28T00:24:04;31.93;;;18.80;;
43519;SDS011;46848;51.980;5.918;2024-02-28T00:26:30;31.30;;;18.07;;
43519;SDS011;46848;51.980;5.918;2024-02-28T00:28:56;29.10;;;17.90;;
43519;SDS011;46848;51.980;5.918;2024-02-28T00:31:22;32.03;;;18.40;;
43519;SDS011;46848;51.980;5.918;2024-02-28T00:33:47;30.00;;;18.67;;
43519;SDS011;46848;51.980;5.918;2024-02-28T00:36:13;27.57;;;17.13;;
43519;SDS011;46848;51.980;5.918;2024-02-28T00:38:40;29.03;;;16.70;;
43519;SDS011;46848;51.980;5.918;2024-02-28T00:41:06;30.00;;;17.07;;
43519;SDS011;46848;51.980;5.918;2024-02-28T00:43:31;30.43;;;17.50;;
43519;SDS011;46848;51.980;5.918;2024-02-28T00:45:57;28.27;;;17.70;;
43519;SDS011;46848;51.980;5.918;2024-02-28T00:48:23;33.57;;;19.60;;
43519;SDS011;46848;51.980;5.918;2024-02-28T00:50:49;31.30;;;18.30;;
43519;SDS011;46848;51.980;5.918;2024-02-28T00:53:15;31.10;;;18.63;;
43519;SDS011;46848;51.980;5.918;2024-02-28T00:55:41;28.37;;;17.43;;
43519;SDS011;46848;51.980;5.918;2024-02-28T00:58:06;30.17;;;18.23;;
43519;SDS011;46848;51.980;5.918;2024-02-28T01:00:32;29.40;;;18.03;;
43519;SDS011;46848;51.980;5.918;2024-02-28T01:02:58;30.30;;;18.57;;
43519;SDS011;46848;51.980;5.918;2024-02-28T01:05:23;29.57;;;18.37;;
43519;SDS011;46848;51.980;5.918;2024-02-28T01:07:49;28.93;;;18.17;;
43519;SDS011;46848;51.980;5.918;2024-02-28T01:10:14;29.93;;;18.23;;
43519;SDS011;46848;51.980;5.918;2024-02-28T01:12:40;27.87;;;17.40;;
43519;SDS011;46848;51.980;5.918;2024-02-28T01:15:06;32.40;;;19.40;;
43519;SDS011;46848;51.980;5.918;2024-02-28T01:17:32;34.40;;;20.00;;
43519;SDS011;46848;51.980;5.918;2024-02-28T01:19:57;35.33;;;20.63;;
43519;SDS011;46848;51.980;5.918;2024-02-28T01:22:23;40.27;;;22.87;;
43519;SDS011;46848;51.980;5.918;2024-02-28T01:24:49;37.93;;;22.83;;
43519;SDS011;46848;51.980;5.918;2024-02-28T01:27:14;35.33;;;21.70;;
43519;SDS011;46848;51.980;5.918;2024-02-28T01:29:40;37.63;;;21.67;;
43519;SDS011;46848;51.980;5.918;2024-02-28T01:32:05;35.50;;;21.50;;
43519;SDS011;46848;51.980;5.918;2024-02-28T01:34:31;40.77;;;23.70;;
43519;SDS011;46848;51.980;5.918;2024-02-28T01:36:57;39.40;;;23.10;;
43519;SDS011;46848;51.980;5.918;2024-02-28T01:39:23;39.80;;;22.60;;
43519;SDS011;46848;51.980;5.918;2024-02-28T01:41:52;34.60;;;20.63;;
43519;SDS011;46848;51.980;5.918;2024-02-28T01:44:18;33.60;;;20.40;;
43519;SDS011;46848;51.980;5.918;2024-02-28T01:46:44;36.37;;;21.47;;
43519;SDS011;46848;51.980;5.918;2024-02-28T01:49:09;33.27;;;19.57;;
43519;SDS011;46848;51.980;5.918;2024-02-28T01:51:35;31.43;;;19.40;;
43519;SDS011;46848;51.980;5.918;2024-02-28T01:54:01;33.13;;;19.90;;
43519;SDS011;46848;51.980;5.918;2024-02-28T01:56:27;35.60;;;20.83;;
43519;SDS011;46848;51.980;5.918;2024-02-28T01:58:53;36.37;;;20.87;;
43519;SDS011;46848;51.980;5.918;2024-02-28T02:01:20;34.50;;;20.67;;
43519;SDS011;46848;51.980;5.918;2024-02-28T02:03:45;35.60;;;20.40;;
43519;SDS011;46848;51.980;5.918;2024-02-28T02:06:11;34.20;;;20.83;;
43519;SDS011;46848;51.980;5.918;2024-02-28T02:08:37;36.30;;;21.70;;
43519;SDS011;46848;51.980;5.918;2024-02-28T02:11:04;41.77;;;21.00;;
43519;SDS011;46848;51.980;5.918;2024-02-28T02:13:31;31.60;;;18.80;;
43519;SDS011;46848;51.980;5.918;2024-02-28T02:15:57;30.10;;;18.93;;
43519;SDS011;46848;51.980;5.918;2024-02-28T02:18:22;31.37;;;19.20;;
43519;SDS011;46848;51.980;5.918;2024-02-28T02:20:53;45.43;;;21.67;;
43519;SDS011;46848;51.980;5.918;2024-02-28T02:23:23;35.03;;;20.23;;
43519;SDS011;46848;51.980;5.918;2024-02-28T02:25:49;33.73;;;19.23;;
43519;SDS011;46848;51.980;5.918;2024-02-28T02:28:15;31.63;;;20.07;;
43519;SDS011;46848;51.980;5.918;2024-02-28T02:30:40;30.87;;;19.03;;
43519;SDS011;46848;51.980;5.918;2024-02-28T02:33:07;34.10;;;19.27;;
43519;SDS011;46848;51.980;5.918;2024-02-28T02:35:33;31.80;;;19.17;;
43519;SDS011;46848;51.980;5.918;2024-02-28T02:37:59;32.17;;;18.87;;
43519;SDS011;46848;51.980;5.918;2024-02-28T02:40:25;41.03;;;20.23;;
43519;SDS011;46848;51.980;5.918;2024-02-28T02:42:50;32.40;;;19.63;;
43519;SDS011;46848;51.980;5.918;2024-02-28T02:45:16;33.33;;;19.60;;
43519;SDS011;46848;51.980;5.918;2024-02-28T02:47:42;30.07;;;18.60;;
43519;SDS011;46848;51.980;5.918;2024-02-28T02:50:09;32.63;;;19.57;;
43519;SDS011;46848;51.980;5.918;2024-02-28T02:52:34;35.20;;;18.23;;
43519;SDS011;46848;51.980;5.918;2024-02-28T02:55:00;38.30;;;18.03;;
43519;SDS011;46848;51.980;5.918;2024-02-28T02:57:26;27.40;;;17.40;;
43519;SDS011;46848;51.980;5.918;2024-02-28T02:59:51;28.57;;;17.93;;
43519;SDS011;46848;51.980;5.918;2024-02-28T03:02:17;30.30;;;18.43;;
43519;SDS011;46848;51.980;5.918;2024-02-28T03:04:43;25.87;;;16.40;;
43519;SDS011;46848;51.980;5.918;2024-02-28T03:07:08;28.30;;;17.33;;
43519;SDS011;46848;51.980;5.918;2024-02-28T03:09:34;27.93;;;17.27;;
43519;SDS011;46848;51.980;5.918;2024-02-28T03:11:59;27.07;;;16.83;;
43519;SDS011;46848;51.980;5.918;2024-02-28T03:14:25;25.60;;;16.17;;
43519;SDS011;46848;51.980;5.918;2024-02-28T03:16:52;26.13;;;16.43;;
43519;SDS011;46848;51.980;5.918;2024-02-28T03:19:18;27.97;;;16.63;;
43519;SDS011;46848;51.980;5.918;2024-02-28T03:21:44;28.23;;;16.93;;
43519;SDS011;46848;51.980;5.918;2024-02-28T03:24:09;29.70;;;17.80;;
43519;SDS011;46848;51.980;5.918;2024-02-28T03:26:35;25.27;;;16.27;;
43519;SDS011;46848;51.980;5.918;2024-02-28T03:29:00;26.50;;;16.53;;
43519;SDS011;46848;51.980;5.918;2024-02-28T03:31:27;29.27;;;17.27;;
43519;SDS011;46848;51.980;5.918;2024-02-28T03:33:52;27.13;;;16.93;;
43519;SDS011;46848;51.980;5.918;2024-02-28T03:36:18;31.10;;;18.70;;
43519;SDS011;46848;51.980;5.918;2024-02-28T03:38:44;35.30;;;20.27;;
43519;SDS011;46848;51.980;5.918;2024-02-28T03:41:09;52.50;;;30.60;;
43519;SDS011;46848;51.980;5.918;2024-02-28T03:43:35;58.00;;;32.33;;
43519;SDS011;46848;51.980;5.918;2024-02-28T03:46:01;57.37;;;32.50;;
43519;SDS011;46848;51.980;5.918;2024-02-28T03:48:26;57.73;;;31.57;;
43519;SDS011;46848;51.980;5.918;2024-02-28T03:50:52;55.33;;;30.90;;
43519;SDS011;46848;51.980;5.918;2024-02-28T03:53:17;54.27;;;30.97;;
43519;SDS011;46848;51.980;5.918;2024-02-28T03:55:43;45.83;;;25.43;;
43519;SDS011;46848;51.980;5.918;2024-02-28T03:58:09;41.13;;;23.07;;
43519;SDS011;46848;51.980;5.918;2024-02-28T04:00:35;39.00;;;21.37;;
43519;SDS011;46848;51.980;5.918;2024-02-28T04:03:01;34.27;;;19.97;;
43519;SDS011;46848;51.980;5.918;2024-02-28T04:05:28;35.93;;;19.00;;
43519;SDS011;46848;51.980;5.918;2024-02-28T04:07:54;30.30;;;17.67;;
43519;SDS011;46848;51.980;5.918;2024-02-28T04:10:19;28.03;;;17.90;;
43519;SDS011;46848;51.980;5.918;2024-02-28T04:12:45;26.60;;;17.03;;
43519;SDS011;46848;51.980;5.918;2024-02-28T04:15:11;28.57;;;16.93;;
43519;SDS011;46848;51.980;5.918;2024-02-28T04:17:37;24.77;;;16.53;;
43519;SDS011;46848;51.980;5.918;2024-02-28T04:20:03;27.33;;;15.13;;
43519;SDS011;46848;51.980;5.918;2024-02-28T04:22:33;29.13;;;17.20;;
43519;SDS011;46848;51.980;5.918;2024-02-28T04:24:58;30.20;;;16.60;;
43519;SDS011;46848;51.980;5.918;2024-02-28T04:27:24;29.07;;;18.20;;
43519;SDS011;46848;51.980;5.918;2024-02-28T04:29:49;28.33;;;18.13;;
43519;SDS011;46848;51.980;5.918;2024-02-28T04:32:15;31.43;;;19.47;;
43519;SDS011;46848;51.980;5.918;2024-02-28T04:34:41;32.57;;;20.30;;
43519;SDS011;46848;51.980;5.918;2024-02-28T04:37:06;26.90;;;17.37;;
43519;SDS011;46848;51.980;5.918;2024-02-28T04:39:32;31.17;;;18.67;;
43519;SDS011;46848;51.980;5.918;2024-02-28T04:41:57;27.93;;;18.57;;
43519;SDS011;46848;51.980;5.918;2024-02-28T04:44:23;28.00;;;17.53;;
43519;SDS011;46848;51.980;5.918;2024-02-28T04:46:48;28.77;;;18.57;;
43519;SDS011;46848;51.980;5.918;2024-02-28T04:49:14;25.60;;;17.13;;
43519;SDS011;46848;51.980;5.918;2024-02-28T04:51:40;35.77;;;19.37;;
43519;SDS011;46848;51.980;5.918;2024-02-28T04:54:05;29.30;;;17.70;;
43519;SDS011;46848;51.980;5.918;2024-02-28T04:56:31;26.40;;;17.37;;
43519;SDS011;46848;51.980;5.918;2024-02-28T04:58:56;37.00;;;18.83;;
43519;SDS011;46848;51.980;5.918;2024-02-28T05:01:22;27.53;;;18.20;;
43519;SDS011;46848;51.980;5.918;2024-02-28T05:03:48;27.07;;;16.93;;
43519;SDS011;46848;51.980;5.918;2024-02-28T05:06:13;25.90;;;16.10;;
43519;SDS011;46848;51.980;5.918;2024-02-28T05:08:39;25.53;;;17.03;;
43519;SDS011;46848;51.980;5.918;2024-02-28T05:11:04;31.73;;;18.93;;
43519;SDS011;46848;51.980;5.918;2024-02-28T05:13:30;30.67;;;17.87;;
43519;SDS011;46848;51.980;5.918;2024-02-28T05:15:55;24.83;;;15.73;;
43519;SDS011;46848;51.980;5.918;2024-02-28T05:18:21;27.00;;;15.93;;
43519;SDS011;46848;51.980;5.918;2024-02-28T05:20:47;28.53;;;16.37;;
43519;SDS011;46848;51.980;5.918;2024-02-28T05:23:13;22.30;;;15.30;;
43519;SDS011;46848;51.980;5.918;2024-02-28T05:25:38;23.17;;;15.87;;
43519;SDS011;46848;51.980;5.918;2024-02-28T05:28:04;25.23;;;15.83;;
43519;SDS011;46848;51.980;5.918;2024-02-28T05:30:30;23.33;;;16.37;;
43519;SDS011;46848;51.980;5.918;2024-02-28T05:32:55;34.47;;;21.10;;
43519;SDS011;46848;51.980;5.918;2024-02-28T05:35:21;25.87;;;16.80;;
43519;SDS011;46848;51.980;5.918;2024-02-28T05:37:46;26.67;;;17.33;;
43519;SDS011;46848;51.980;5.918;2024-02-28T05:40:12;25.93;;;16.57;;
43519;SDS011;46848;51.980;5.918;2024-02-28T05:42:38;26.20;;;16.30;;
43519;SDS011;46848;51.980;5.918;2024-02-28T05:45:05;26.30;;;16.23;;
43519;SDS011;46848;51.980;5.918;2024-02-28T05:47:31;25.90;;;15.73;;
43519;SDS011;46848;51.980;5.918;2024-02-28T05:49:56;26.40;;;16.93;;
43519;SDS011;46848;51.980;5.918;2024-02-28T05:52:23;30.73;;;17.37;;
43519;SDS011;46848;51.980;5.918;2024-02-28T05:54:50;29.77;;;19.00;;
43519;SDS011;46848;51.980;5.918;2024-02-28T05:57:16;28.57;;;17.53;;
43519;SDS011;46848;51.980;5.918;2024-02-28T05:59:42;23.80;;;16.50;;
43519;SDS011;46848;51.980;5.918;2024-02-28T06:02:07;30.37;;;18.00;;
43519;SDS011;46848;51.980;5.918;2024-02-28T06:04:33;24.00;;;16.27;;
43519;SDS011;46848;51.980;5.918;2024-02-28T06:06:58;25.57;;;15.70;;
43519;SDS011;46848;51.980;5.918;2024-02-28T06:09:25;21.67;;;14.70;;
43519;SDS011;46848;51.980;5.918;2024-02-28T06:11:52;24.83;;;17.00;;
43519;SDS011;46848;51.980;5.918;2024-02-28T06:14:18;25.67;;;15.83;;
43519;SDS011;46848;51.980;5.918;2024-02-28T06:16:46;22.17;;;14.53;;
43519;SDS011;46848;51.980;5.918;2024-02-28T06:19:12;24.43;;;14.60;;
43519;SDS011;46848;51.980;5.918;2024-02-28T06:21:38;21.83;;;14.90;;
43519;SDS011;46848;51.980;5.918;2024-02-28T06:24:03;22.70;;;14.63;;
43519;SDS011;46848;51.980;5.918;2024-02-28T06:26:29;18.60;;;13.13;;
43519;SDS011;46848;51.980;5.918;2024-02-28T06:28:56;21.07;;;14.70;;
43519;SDS011;46848;51.980;5.918;2024-02-28T06:31:26;20.43;;;14.77;;
43519;SDS011;46848;51.980;5.918;2024-02-28T06:33:54;17.43;;;12.90;;
43519;SDS011;46848;51.980;5.918;2024-02-28T06:36:20;17.93;;;12.50;;
43519;SDS011;46848;51.980;5.918;2024-02-28T06:38:46;20.20;;;14.13;;
43519;SDS011;46848;51.980;5.918;2024-02-28T06:41:11;18.17;;;13.50;;
43519;SDS011;46848;51.980;5.918;2024-02-28T06:43:37;22.40;;;14.00;;
43519;SDS011;46848;51.980;5.918;2024-02-28T06:46:03;21.20;;;13.67;;
43519;SDS011;46848;51.980;5.918;2024-02-28T06:48:29;22.80;;;13.37;;
43519;SDS011;46848;51.980;5.918;2024-02-28T06:50:55;20.60;;;14.10;;
43519;SDS011;46848;51.980;5.918;2024-02-28T06:53:21;20.90;;;14.80;;
43519;SDS011;46848;51.980;5.918;2024-02-28T06:55:46;18.83;;;13.23;;
43519;SDS011;46848;51.980;5.918;2024-02-28T06:58:13;16.53;;;12.27;;
43519;SDS011;46848;51.980;5.918;2024-02-28T07:00:39;18.17;;;13.03;;
43519;SDS011;46848;51.980;5.918;2024-02-28T07:03:05;19.53;;;13.33;;
43519;SDS011;46848;51.980;5.918;2024-02-28T07:05:32;19.63;;;13.13;;
43519;SDS011;46848;51.980;5.918;2024-02-28T07:07:58;19.87;;;12.80;;
43519;SDS011;46848;51.980;5.918;2024-02-28T07:10:24;17.63;;;13.10;;
43519;SDS011;46848;51.980;5.918;2024-02-28T07:12:50;21.30;;;12.50;;
43519;SDS011;46848;51.980;5.918;2024-02-28T07:15:15;18.27;;;12.97;;
43519;SDS011;46848;51.980;5.918;2024-02-28T07:17:44;19.53;;;13.47;;
43519;SDS011;46848;51.980;5.918;2024-02-28T07:20:10;18.77;;;12.97;;
43519;SDS011;46848;51.980;5.918;2024-02-28T07:22:37;19.03;;;13.57;;
43519;SDS011;46848;51.980;5.918;2024-02-28T07:25:03;18.70;;;13.07;;
43519;SDS011;46848;51.980;5.918;2024-02-28T07:27:29;18.80;;;13.30;;
43519;SDS011;46848;51.980;5.918;2024-02-28T07:29:55;18.63;;;13.40;;
43519;SDS011;46848;51.980;5.918;2024-02-28T07:32:21;18.93;;;13.40;;
43519;SDS011;46848;51.980;5.918;2024-02-28T07:34:46;26.43;;;16.20;;
43519;SDS011;46848;51.980;5.918;2024-02-28T07:37:12;23.07;;;15.17;;
43519;SDS011;46848;51.980;5.918;2024-02-28T07:39:37;19.43;;;13.60;;
43519;SDS011;46848;51.980;5.918;2024-02-28T07:42:03;23.57;;;16.30;;
43519;SDS011;46848;51.980;5.918;2024-02-28T07:44:29;21.73;;;16.17;;
43519;SDS011;46848;51.980;5.918;2024-02-28T07:46:57;19.77;;;14.23;;
43519;SDS011;46848;51.980;5.918;2024-02-28T07:49:23;19.63;;;14.47;;
43519;SDS011;46848;51.980;5.918;2024-02-28T07:51:49;20.17;;;15.00;;
43519;SDS011;46848;51.980;5.918;2024-02-28T07:54:15;24.43;;;16.63;;
43519;SDS011;46848;51.980;5.918;2024-02-28T07:56:41;22.97;;;15.97;;
43519;SDS011;46848;51.980;5.918;2024-02-28T07:59:06;20.63;;;16.13;;
43519;SDS011;46848;51.980;5.918;2024-02-28T08:01:32;20.07;;;14.43;;
43519;SDS011;46848;51.980;5.918;2024-02-28T08:03:58;20.90;;;14.17;;
43519;SDS011;46848;51.980;5.918;2024-02-28T08:06:24;19.87;;;13.60;;
43519;SDS011;46848;51.980;5.918;2024-02-28T08:08:50;21.93;;;14.83;;
43519;SDS011;46848;51.980;5.918;2024-02-28T08:11:16;20.60;;;15.07;;
43519;SDS011;46848;51.980;5.918;2024-02-28T08:13:42;22.20;;;15.73;;
43519;SDS011;46848;51.980;5.918;2024-02-28T08:16:09;22.60;;;16.53;;
43519;SDS011;46848;51.980;5.918;2024-02-28T08:18:34;23.83;;;16.70;;
43519;SDS011;46848;51.980;5.918;2024-02-28T08:21:00;25.90;;;17.80;;
43519;SDS011;46848;51.980;5.918;2024-02-28T08:23:27;22.60;;;17.00;;
43519;SDS011;46848;51.980;5.918;2024-02-28T08:25:54;23.67;;;17.13;;
43519;SDS011;46848;51.980;5.918;2024-02-28T08:28:20;26.87;;;16.47;;
43519;SDS011;46848;51.980;5.918;2024-02-28T08:30:45;25.47;;;16.67;;
43519;SDS011;46848;51.980;5.918;2024-02-28T08:33:11;24.00;;;15.93;;
43519;SDS011;46848;51.980;5.918;2024-02-28T08:35:37;25.57;;;16.63;;
43519;SDS011;46848;51.980;5.918;2024-02-28T08:38:02;26.37;;;17.13;;
43519;SDS011;46848;51.980;5.918;2024-02-28T08:40:31;28.90;;;19.17;;
43519;SDS011;46848;51.980;5.918;2024-02-28T08:42:57;27.03;;;17.43;;
43519;SDS011;46848;51.980;5.918;2024-02-28T08:45:22;25.13;;;17.20;;
43519;SDS011;46848;51.980;5.918;2024-02-28T08:47:48;25.87;;;16.67;;
43519;SDS011;46848;51.980;5.918;2024-02-28T08:50:14;28.63;;;16.13;;
43519;SDS011;46848;51.980;5.918;2024-02-28T08:52:39;24.53;;;15.63;;
43519;SDS011;46848;51.980;5.918;2024-02-28T08:55:05;25.70;;;16.60;;
43519;SDS011;46848;51.980;5.918;2024-02-28T08:57:31;24.67;;;16.30;;
43519;SDS011;46848;51.980;5.918;2024-02-28T08:59:57;27.60;;;18.13;;
43519;SDS011;46848;51.980;5.918;2024-02-28T09:02:22;25.80;;;17.63;;
43519;SDS011;46848;51.980;5.918;2024-02-28T09:04:48;27.73;;;17.87;;
43519;SDS011;46848;51.980;5.918;2024-02-28T09:07:17;26.60;;;17.93;;
43519;SDS011;46848;51.980;5.918;2024-02-28T09:09:45;25.27;;;16.93;;
43519;SDS011;46848;51.980;5.918;2024-02-28T09:12:11;26.37;;;16.70;;
43519;SDS011;46848;51.980;5.918;2024-02-28T09:14:37;23.30;;;14.70;;
43519;SDS011;46848;51.980;5.918;2024-02-28T09:17:03;27.83;;;18.57;;
43519;SDS011;46848;51.980;5.918;2024-02-28T09:19:29;27.67;;;18.43;;
43519;SDS011;46848;51.980;5.918;2024-02-28T09:21:56;31.63;;;18.67;;
43519;SDS011;46848;51.980;5.918;2024-02-28T09:24:22;26.67;;;15.87;;
43519;SDS011;46848;51.980;5.918;2024-02-28T09:26:48;27.20;;;17.83;;
43519;SDS011;46848;51.980;5.918;2024-02-28T09:29:14;32.60;;;20.50;;
43519;SDS011;46848;51.980;5.918;2024-02-28T09:31:39;34.90;;;22.97;;
43519;SDS011;46848;51.980;5.918;2024-02-28T09:34:05;31.57;;;20.53;;
43519;SDS011;46848;51.980;5.918;2024-02-28T09:36:33;36.27;;;21.10;;
43519;SDS011;46848;51.980;5.918;2024-02-28T09:39:05;29.07;;;19.10;;
43519;SDS011;46848;51.980;5.918;2024-02-28T09:41:31;32.80;;;19.90;;
43519;SDS011;46848;51.980;5.918;2024-02-28T09:43:56;30.87;;;20.60;;
43519;SDS011;46848;51.980;5.918;2024-02-28T09:46:22;33.00;;;21.23;;
43519;SDS011;46848;51.980;5.918;2024-02-28T09:48:49;31.87;;;21.20;;
43519;SDS011;46848;51.980;5.918;2024-02-28T09:51:16;29.20;;;20.23;;
43519;SDS011;46848;51.980;5.918;2024-02-28T09:53:43;26.97;;;18.80;;
43519;SDS011;46848;51.980;5.918;2024-02-28T09:56:09;32.17;;;22.53;;
43519;SDS011;46848;51.980;5.918;2024-02-28T09:58:36;32.60;;;21.23;;
43519;SDS011;46848;51.980;5.918;2024-02-28T10:01:04;35.97;;;24.33;;
43519;SDS011;46848;51.980;5.918;2024-02-28T10:03:34;43.30;;;27.87;;
43519;SDS011;46848;51.980;5.918;2024-02-28T10:06:01;44.97;;;28.33;;
43519;SDS011;46848;51.980;5.918;2024-02-28T10:08:27;38.27;;;25.67;;
43519;SDS011;46848;51.980;5.918;2024-02-28T10:10:54;37.47;;;25.27;;
43519;SDS011;46848;51.980;5.918;2024-02-28T10:13:21;36.23;;;24.50;;
43519;SDS011;46848;51.980;5.918;2024-02-28T10:15:49;33.47;;;23.10;;
43519;SDS011;46848;51.980;5.918;2024-02-28T10:18:15;41.27;;;27.43;;
43519;SDS011;46848;51.980;5.918;2024-02-28T10:20:41;41.10;;;27.70;;
43519;SDS011;46848;51.980;5.918;2024-02-28T10:23:07;37.57;;;24.23;;
43519;SDS011;46848;51.980;5.918;2024-02-28T10:25:44;35.43;;;24.33;;
43519;SDS011;46848;51.980;5.918;2024-02-28T10:28:11;43.43;;;27.37;;
43519;SDS011;46848;51.980;5.918;2024-02-28T10:30:38;42.03;;;27.73;;
43519;SDS011;46848;51.980;5.918;2024-02-28T10:33:11;35.47;;;23.97;;
43519;SDS011;46848;51.980;5.918;2024-02-28T10:35:40;40.23;;;27.40;;
43519;SDS011;46848;51.980;5.918;2024-02-28T10:38:10;45.30;;;29.50;;
43519;SDS011;46848;51.980;5.918;2024-02-28T10:40:38;39.07;;;27.80;;
43519;SDS011;46848;51.980;5.918;2024-02-28T10:43:07;35.83;;;24.30;;
43519;SDS011;46848;51.980;5.918;2024-02-28T10:45:35;34.20;;;23.23;;
43519;SDS011;46848;51.980;5.918;2024-02-28T10:48:03;30.70;;;21.93;;
43519;SDS011;46848;51.980;5.918;2024-02-28T10:50:31;28.63;;;20.70;;
43519;SDS011;46848;51.980;5.918;2024-02-28T10:53:03;30.07;;;21.47;;
43519;SDS011;46848;51.980;5.918;2024-02-28T10:55:33;32.13;;;23.33;;
43519;SDS011;46848;51.980;5.918;2024-02-28T10:58:05;30.67;;;22.00;;
43519;SDS011;46848;51.980;5.918;2024-02-28T11:00:32;28.70;;;21.50;;
43519;SDS011;46848;51.980;5.918;2024-02-28T11:03:00;31.47;;;21.37;;
43519;SDS011;46848;51.980;5.918;2024-02-28T11:05:37;34.67;;;24.10;;
43519;SDS011;46848;51.980;5.918;2024-02-28T11:08:11;36.27;;;24.50;;
43519;SDS011;46848;51.980;5.918;2024-02-28T11:10:45;33.47;;;22.27;;
43519;SDS011;46848;51.980;5.918;2024-02-28T11:13:21;27.57;;;20.57;;
43519;SDS011;46848;51.980;5.918;2024-02-28T11:15:47;34.57;;;23.13;;
43519;SDS011;46848;51.980;5.918;2024-02-28T11:18:13;30.80;;;21.67;;
43519;SDS011;46848;51.980;5.918;2024-02-28T11:20:38;33.77;;;23.57;;
43519;SDS011;46848;51.980;5.918;2024-02-28T11:23:07;41.13;;;25.87;;
43519;SDS011;46848;51.980;5.918;2024-02-28T11:25:34;39.93;;;26.60;;
43519;SDS011;46848;51.980;5.918;2024-02-28T11:28:00;34.93;;;24.77;;
43519;SDS011;46848;51.980;5.918;2024-02-28T11:30:25;37.50;;;25.17;;
43519;SDS011;46848;51.980;5.918;2024-02-28T11:32:52;37.13;;;26.93;;
43519;SDS011;46848;51.980;5.918;2024-02-28T11:35:18;34.20;;;24.53;;
43519;SDS011;46848;51.980;5.918;2024-02-28T11:37:45;32.07;;;22.03;;
43519;SDS011;46848;51.980;5.918;2024-02-28T11:40:14;29.47;;;20.83;;
43519;SDS011;46848;51.980;5.918;2024-02-28T11:42:39;28.07;;;21.47;;
43519;SDS011;46848;51.980;5.918;2024-02-28T11:45:05;27.63;;;19.70;;
43519;SDS011;46848;51.980;5.918;2024-02-28T11:47:34;24.57;;;18.57;;
43519;SDS011;46848;51.980;5.918;2024-02-28T11:50:00;27.83;;;21.27;;
43519;SDS011;46848;51.980;5.918;2024-02-28T11:52:27;30.57;;;21.53;;
43519;SDS011;46848;51.980;5.918;2024-02-28T11:54:56;27.70;;;20.53;;
43519;SDS011;46848;51.980;5.918;2024-02-28T11:57:21;28.27;;;20.43;;
43519;SDS011;46848;51.980;5.918;2024-02-28T11:59:47;31.20;;;22.53;;
43519;SDS011;46848;51.980;5.918;2024-02-28T12:02:14;36.47;;;26.87;;
43519;SDS011;46848;51.980;5.918;2024-02-28T12:04:41;46.00;;;31.43;;
43519;SDS011;46848;51.980;5.918;2024-02-28T12:07:07;37.17;;;26.17;;
43519;SDS011;46848;51.980;5.918;2024-02-28T12:09:33;41.63;;;29.00;;
43519;SDS011;46848;51.980;5.918;2024-02-28T12:12:02;38.40;;;27.30;;
43519;SDS011;46848;51.980;5.918;2024-02-28T12:14:35;46.23;;;29.17;;
43519;SDS011;46848;51.980;5.918;2024-02-28T12:17:02;40.23;;;28.13;;
43519;SDS011;46848;51.980;5.918;2024-02-28T12:19:28;44.73;;;29.27;;
43519;SDS011;46848;51.980;5.918;2024-02-28T12:21:54;37.67;;;26.83;;
43519;SDS011;46848;51.980;5.918;2024-02-28T12:24:20;40.60;;;28.13;;
43519;SDS011;46848;51.980;5.918;2024-02-28T12:26:46;44.07;;;29.17;;
43519;SDS011;46848;51.980;5.918;2024-02-28T12:29:12;46.77;;;30.33;;
43519;SDS011;46848;51.980;5.918;2024-02-28T12:31:38;46.53;;;30.97;;
43519;SDS011;46848;51.980;5.918;2024-02-28T12:34:04;44.50;;;31.30;;
43519;SDS011;46848;51.980;5.918;2024-02-28T12:36:29;42.70;;;30.13;;
43519;SDS011;46848;51.980;5.918;2024-02-28T12:38:56;42.30;;;29.87;;
43519;SDS011;46848;51.980;5.918;2024-02-28T12:41:23;39.73;;;29.17;;
43519;SDS011;46848;51.980;5.918;2024-02-28T12:43:49;41.87;;;28.73;;
43519;SDS011;46848;51.980;5.918;2024-02-28T12:46:15;48.40;;;30.50;;
43519;SDS011;46848;51.980;5.918;2024-02-28T12:48:40;41.87;;;28.00;;
43519;SDS011;46848;51.980;5.918;2024-02-28T12:51:06;40.83;;;28.77;;
43519;SDS011;46848;51.980;5.918;2024-02-28T12:53:35;38.97;;;26.67;;
43519;SDS011;46848;51.980;5.918;2024-02-28T12:56:01;33.70;;;24.37;;
43519;SDS011;46848;51.980;5.918;2024-02-28T12:58:27;28.90;;;21.30;;
43519;SDS011;46848;51.980;5.918;2024-02-28T13:00:52;32.87;;;22.97;;
43519;SDS011;46848;51.980;5.918;2024-02-28T13:03:18;29.63;;;21.07;;
43519;SDS011;46848;51.980;5.918;2024-02-28T13:05:44;39.87;;;24.47;;
43519;SDS011;46848;51.980;5.918;2024-02-28T13:08:10;30.80;;;22.40;;
43519;SDS011;46848;51.980;5.918;2024-02-28T13:10:36;27.40;;;19.73;;
43519;SDS011;46848;51.980;5.918;2024-02-28T13:13:06;38.37;;;23.47;;
43519;SDS011;46848;51.980;5.918;2024-02-28T13:15:32;37.27;;;24.23;;
43519;SDS011;46848;51.980;5.918;2024-02-28T13:17:58;33.87;;;22.37;;
43519;SDS011;46848;51.980;5.918;2024-02-28T13:20:23;27.83;;;20.13;;
43519;SDS011;46848;51.980;5.918;2024-02-28T13:22:49;28.60;;;19.17;;
43519;SDS011;46848;51.980;5.918;2024-02-28T13:25:16;26.93;;;18.33;;
43519;SDS011;46848;51.980;5.918;2024-02-28T13:27:44;25.10;;;17.57;;
43519;SDS011;46848;51.980;5.918;2024-02-28T13:30:10;27.00;;;20.27;;
43519;SDS011;46848;51.980;5.918;2024-02-28T13:32:36;28.00;;;19.33;;
43519;SDS011;46848;51.980;5.918;2024-02-28T13:35:02;26.67;;;18.80;;
43519;SDS011;46848;51.980;5.918;2024-02-28T13:37:28;27.33;;;17.67;;
43519;SDS011;46848;51.980;5.918;2024-02-28T13:39:53;34.13;;;22.43;;
43519;SDS011;46848;51.980;5.918;2024-02-28T13:42:19;33.23;;;21.53;;
43519;SDS011;46848;51.980;5.918;2024-02-28T13:44:45;28.83;;;19.77;;
43519;SDS011;46848;51.980;5.918;2024-02-28T13:47:11;34.63;;;24.10;;
43519;SDS011;46848;51.980;5.918;2024-02-28T13:49:38;28.13;;;18.90;;
43519;SDS011;46848;51.980;5.918;2024-02-28T13:52:04;32.63;;;21.23;;
43519;SDS011;46848;51.980;5.918;2024-02-28T13:54:30;29.23;;;19.33;;
43519;SDS011;46848;51.980;5.918;2024-02-28T13:56:56;27.23;;;17.47;;
43519;SDS011;46848;51.980;5.918;2024-02-28T13:59:23;22.60;;;16.90;;
43519;SDS011;46848;51.980;5.918;2024-02-28T14:01:49;21.57;;;16.23;;
43519;SDS011;46848;51.980;5.918;2024-02-28T14:04:15;24.70;;;17.23;;
43519;SDS011;46848;51.980;5.918;2024-02-28T14:06:40;24.47;;;15.70;;
43519;SDS011;46848;51.980;5.918;2024-02-28T14:09:06;21.27;;;16.03;;
43519;SDS011;46848;51.980;5.918;2024-02-28T14:11:32;18.07;;;14.00;;
43519;SDS011;46848;51.980;5.918;2024-02-28T14:13:57;33.93;;;21.13;;
43519;SDS011;46848;51.980;5.918;2024-02-28T14:16:23;26.10;;;18.60;;